Time;durP1;ratioP1;P1;durP2;ratioP2;P2;SDS_P1;SDS_P2;PMS_P1;PMS_P2;Temp;Humidity;BMP_temperature;BMP_pressure;BME280_temperature;BME280_humidity;BME280_pressure;Samples;Min_cycle;Max_cycle;Signal;HPM_P1;HPM_P2
2021/04/16 00:00:41;;;;;;;6.90;1.38;;;28.60;84.10;;;;;;5104597;28;20024;-47
2021/04/16 00:03:10;;;;;;;5.38;1.65;;;28.60;84.10;;;;;;5104702;28;20231;-54
2021/04/16 00:05:38;;;;;;;4.70;1.42;;;28.60;83.90;;;;;;5104374;28;20012;-48
2021/04/16 00:08:07;;;;;;;8.82;1.25;;;28.60;84.00;;;;;;5104579;28;20016;-46
2021/04/16 00:10:38;;;;;;;6.35;1.73;;;28.60;83.90;;;;;;5103318;28;20016;-49
2021/04/16 00:13:05;;;;;;;5.93;1.38;;;28.50;83.70;;;;;;5104622;28;20023;-45
2021/04/16 00:15:35;;;;;;;4.55;1.30;;;28.50;83.70;;;;;;5086505;28;20028;-53
2021/04/16 00:18:07;;;;;;;6.40;1.25;;;28.50;83.70;;;;;;5104514;28;20226;-46
2021/04/16 00:20:34;;;;;;;5.95;1.55;;;28.50;83.80;;;;;;5104187;28;20052;-48
2021/04/16 00:23:01;;;;;;;2.97;1.77;;;28.50;83.80;;;;;;5104423;28;20099;-51
2021/04/16 00:25:30;;;;;;;9.38;1.85;;;28.40;84.00;;;;;;5103002;28;20026;-49
2021/04/16 00:27:58;;;;;;;11.13;1.88;;;28.40;84.20;;;;;;5102885;28;20020;-49
2021/04/16 00:30:31;;;;;;;11.13;2.35;;;28.40;84.60;;;;;;5109915;28;20212;-52
2021/04/16 00:32:58;;;;;;;11.77;2.30;;;28.40;83.90;;;;;;5124018;28;20020;-48
2021/04/16 00:35:25;;;;;;;14.73;2.30;;;28.40;84.00;;;;;;5102081;28;20017;-43
2021/04/16 00:37:52;;;;;;;9.02;1.88;;;28.40;83.80;;;;;;5097933;28;20028;-45
2021/04/16 00:40:23;;;;;;;8.13;1.45;;;28.40;83.70;;;;;;5099108;28;20020;-46
2021/04/16 00:42:59;;;;;;;3.97;1.70;;;28.30;83.50;;;;;;5097598;28;20034;-45
2021/04/16 00:45:27;;;;;;;9.02;1.70;;;28.30;83.20;;;;;;5085411;28;20324;-52
2021/04/16 00:48:00;;;;;;;6.15;1.70;;;28.30;83.10;;;;;;5103194;28;20028;-52
2021/04/16 00:50:39;;;;;;;7.85;2.10;;;28.30;83.10;;;;;;5085189;28;20034;-45
2021/04/16 00:53:06;;;;;;;5.75;1.73;;;28.30;82.70;;;;;;5103674;28;20073;-46
2021/04/16 00:55:33;;;;;;;9.77;2.40;;;28.30;82.80;;;;;;5088837;28;20091;-52
2021/04/16 00:58:00;;;;;;;10.05;2.13;;;28.30;82.70;;;;;;5082460;28;20074;-55
2021/04/16 01:00:28;;;;;;;9.23;2.28;;;28.30;82.70;;;;;;5083347;28;20031;-47
2021/04/16 01:02:55;;;;;;;9.95;1.90;;;28.30;82.70;;;;;;5083378;28;20044;-52
2021/04/16 01:05:22;;;;;;;8.38;2.38;;;28.30;82.70;;;;;;5083556;28;20036;-47
2021/04/16 01:07:52;;;;;;;5.93;1.73;;;28.30;82.80;;;;;;5083535;28;20321;-48
2021/04/16 01:10:19;;;;;;;7.05;2.20;;;28.30;82.80;;;;;;5083624;28;20028;-49
2021/04/16 01:12:46;;;;;;;8.20;2.40;;;28.30;82.70;;;;;;5065573;28;20083;-47
2021/04/16 01:15:30;;;;;;;8.68;3.97;;;28.30;82.70;;;;;;5083618;28;20036;-48
2021/04/16 01:18:11;;;;;;;17.63;9.85;;;28.20;82.80;;;;;;5083850;28;20178;-50
2021/04/16 01:20:41;;;;;;;21.27;10.40;;;28.20;82.80;;;;;;5087440;28;20048;-52
2021/04/16 01:23:33;;;;;;;17.35;11.57;;;28.20;83.30;;;;;;5069999;28;20028;-46
2021/04/16 01:26:01;;;;;;;18.05;8.55;;;28.20;83.30;;;;;;5087509;28;20308;-51
2021/04/16 01:28:28;;;;;;;9.32;6.85;;;28.20;83.30;;;;;;5086798;28;20216;-48
2021/04/16 01:30:57;;;;;;;11.07;5.50;;;28.20;83.50;;;;;;5087330;28;20033;-48
2021/04/16 01:33:27;;;;;;;13.35;5.97;;;28.20;83.70;;;;;;5086970;28;20025;-50
2021/04/16 01:35:54;;;;;;;9.75;4.57;;;28.10;83.90;;;;;;5087209;28;20087;-51
2021/04/16 01:38:22;;;;;;;11.68;4.35;;;28.10;83.90;;;;;;5069174;28;20040;-47
2021/04/16 01:40:50;;;;;;;8.98;3.50;;;28.10;84.00;;;;;;5069565;28;20024;-47
2021/04/16 01:43:26;;;;;;;10.68;3.60;;;28.10;84.00;;;;;;5068586;28;20103;-48
2021/04/16 01:46:14;;;;;;;9.70;3.60;;;28.10;83.90;;;;;;5086374;28;20051;-46
2021/04/16 01:48:47;;;;;;;11.30;2.55;;;28.00;83.60;;;;;;5068944;28;20071;-44
2021/04/16 01:51:21;;;;;;;6.93;1.75;;;28.00;83.70;;;;;;5087137;28;20016;-53
2021/04/16 01:53:49;;;;;;;11.02;2.05;;;28.00;84.30;;;;;;5087062;28;20028;-46
2021/04/16 01:56:16;;;;;;;9.30;2.15;;;28.00;84.40;;;;;;5086494;28;20039;-52
2021/04/16 01:58:43;;;;;;;11.27;2.83;;;27.90;83.90;;;;;;5087046;28;20029;-57
2021/04/16 02:01:10;;;;;;;9.57;3.88;;;28.00;84.20;;;;;;5069027;28;20036;-53
2021/04/16 02:03:37;;;;;;;8.73;4.05;;;27.90;84.00;;;;;;5086528;28;20204;-47
2021/04/16 02:06:04;;;;;;;9.98;4.30;;;27.90;84.00;;;;;;5086509;28;20021;-48
2021/04/16 02:08:31;;;;;;;13.38;6.20;;;27.90;84.30;;;;;;5085983;28;20021;-53
2021/04/16 02:11:00;;;;;;;12.05;6.43;;;27.90;84.60;;;;;;5068750;28;20091;-54
2021/04/16 02:13:27;;;;;;;13.15;8.65;;;27.90;84.80;;;;;;5051890;28;20421;-51
2021/04/16 02:15:54;;;;;;;15.05;6.15;;;27.80;84.70;;;;;;5086653;28;20029;-49
2021/04/16 02:18:23;;;;;;;8.60;4.00;;;27.80;84.50;;;;;;5086495;28;20324;-49
2021/04/16 02:20:50;;;;;;;11.65;3.63;;;27.80;84.40;;;;;;5086135;28;20066;-48
2021/04/16 02:23:17;;;;;;;8.68;3.50;;;27.80;84.70;;;;;;5086342;28;20380;-46
2021/04/16 02:25:44;;;;;;;9.25;2.75;;;27.70;84.50;;;;;;5086354;28;20344;-51
2021/04/16 02:28:11;;;;;;;9.15;2.72;;;27.70;84.70;;;;;;5086255;28;20025;-48
2021/04/16 02:30:41;;;;;;;7.95;2.92;;;27.70;85.10;;;;;;5068438;28;20016;-53
2021/04/16 02:33:07;;;;;;;9.77;3.28;;;27.70;85.20;;;;;;5086179;28;20087;-46
2021/04/16 02:35:34;;;;;;;7.22;2.70;;;27.60;85.30;;;;;;5086255;28;20031;-46
2021/04/16 02:38:02;;;;;;;5.03;2.58;;;27.60;85.50;;;;;;5086130;28;20082;-46
2021/04/16 02:40:29;;;;;;;7.10;2.70;;;27.60;85.90;;;;;;5070630;28;20267;-45
2021/04/16 02:42:56;;;;;;;9.13;2.60;;;27.60;86.10;;;;;;5081948;28;20047;-48
2021/04/16 02:45:25;;;;;;;6.60;2.65;;;27.60;86.30;;;;;;5100225;28;20020;-43
2021/04/16 02:47:53;;;;;;;10.02;2.38;;;27.50;86.30;;;;;;5087810;28;20331;-45
2021/04/16 02:50:27;;;;;;;13.27;3.17;;;27.60;86.60;;;;;;5103814;28;20085;-47
2021/04/16 02:52:54;;;;;;;8.40;2.38;;;27.50;86.60;;;;;;5100445;28;20020;-42
2021/04/16 02:55:21;;;;;;;11.05;2.92;;;27.50;86.90;;;;;;5105920;28;20047;-49
2021/04/16 02:57:47;;;;;;;12.85;3.67;;;27.50;87.00;;;;;;5105511;28;20039;-46
2021/04/16 03:00:23;;;;;;;11.93;4.45;;;27.50;86.90;;;;;;5101317;28;20028;-45
2021/04/16 03:02:49;;;;;;;12.95;3.90;;;27.50;86.80;;;;;;5093511;28;20362;-44
2021/04/16 03:05:17;;;;;;;11.45;4.35;;;27.40;86.70;;;;;;5095509;28;20236;-46
2021/04/16 03:07:44;;;;;;;10.55;3.65;;;27.50;86.80;;;;;;5094442;28;20012;-44
2021/04/16 03:10:14;;;;;;;10.20;3.35;;;27.40;87.00;;;;;;5077852;28;20407;-49
2021/04/16 03:12:41;;;;;;;8.65;3.03;;;27.40;86.90;;;;;;5095481;28;20020;-43
2021/04/16 03:15:09;;;;;;;6.72;2.95;;;27.40;86.80;;;;;;5094008;28;20190;-42
2021/04/16 03:17:36;;;;;;;9.30;2.55;;;27.40;86.30;;;;;;5094793;28;20012;-49
2021/04/16 03:20:06;;;;;;;9.88;2.25;;;27.40;86.00;;;;;;5098878;28;20051;-45
2021/04/16 03:22:34;;;;;;;5.43;1.80;;;27.40;85.80;;;;;;5087292;28;20094;-43
2021/04/16 03:25:07;;;;;;;5.78;1.88;;;27.40;85.70;;;;;;5094407;28;20091;-44
2021/04/16 03:27:34;;;;;;;7.13;2.08;;;27.40;85.90;;;;;;5095920;28;20075;-46
2021/04/16 03:30:01;;;;;;;4.80;1.80;;;27.30;85.80;;;;;;5088375;28;20350;-44
2021/04/16 03:32:28;;;;;;;9.07;1.88;;;27.30;85.70;;;;;;5085220;28;20239;-46
2021/04/16 03:34:55;;;;;;;6.22;1.92;;;27.30;85.20;;;;;;5085956;28;20213;-44
2021/04/16 03:37:22;;;;;;;4.50;1.48;;;27.30;85.10;;;;;;5085101;28;20031;-48
2021/04/16 03:39:49;;;;;;;8.70;1.67;;;27.30;85.00;;;;;;5085696;28;20070;-49
2021/04/16 03:42:16;;;;;;;5.00;1.65;;;27.30;85.00;;;;;;5067031;28;20239;-49
2021/04/16 03:44:43;;;;;;;12.35;1.83;;;27.30;84.80;;;;;;5085388;28;20047;-51
2021/04/16 03:47:10;;;;;;;6.20;1.52;;;27.30;84.70;;;;;;5066895;28;20374;-51
2021/04/16 03:49:37;;;;;;;11.82;1.80;;;27.30;84.40;;;;;;5085442;28;20066;-50
2021/04/16 03:52:05;;;;;;;4.40;1.42;;;27.30;84.60;;;;;;5084904;28;20134;-45
2021/04/16 03:54:32;;;;;;;7.90;1.70;;;27.20;84.70;;;;;;5067378;28;20040;-50
2021/04/16 03:56:59;;;;;;;3.90;1.40;;;27.20;84.60;;;;;;5067065;28;20020;-48
2021/04/16 03:59:25;;;;;;;6.20;1.30;;;27.20;84.40;;;;;;5085190;28;20020;-46
2021/04/16 04:01:53;;;;;;;8.13;1.70;;;27.20;84.90;;;;;;5084413;28;20351;-43
2021/04/16 04:04:21;;;;;;;3.60;1.10;;;27.20;84.40;;;;;;5067390;28;20028;-50
2021/04/16 04:06:49;;;;;;;4.72;1.58;;;27.20;84.50;;;;;;5084703;28;20019;-43
2021/04/16 04:09:17;;;;;;;4.45;1.35;;;27.20;84.50;;;;;;5087210;28;20032;-49
2021/04/16 04:11:44;;;;;;;5.72;1.20;;;27.20;84.80;;;;;;5092892;28;20016;-44
2021/04/16 04:14:10;;;;;;;9.15;1.50;;;27.10;84.70;;;;;;5098842;28;20058;-47
2021/04/16 04:16:56;;;;;;;5.95;1.50;;;27.20;84.80;;;;;;5104753;28;20036;-46
2021/04/16 04:19:24;;;;;;;6.55;1.55;;;27.10;85.30;;;;;;5104735;28;20035;-44
2021/04/16 04:21:52;;;;;;;4.10;1.17;;;27.10;85.00;;;;;;5104621;28;20024;-43
2021/04/16 04:24:20;;;;;;;4.75;1.40;;;27.10;85.20;;;;;;5104922;28;20020;-48
2021/04/16 04:26:47;;;;;;;6.90;1.25;;;27.10;85.10;;;;;;5104647;28;20077;-54
2021/04/16 04:29:16;;;;;;;3.70;1.10;;;27.10;85.10;;;;;;5086549;28;20249;-42
2021/04/16 04:31:49;;;;;;;5.72;1.33;;;27.10;84.80;;;;;;5104190;28;20331;-48
2021/04/16 04:34:27;;;;;;;7.80;1.70;;;27.10;84.80;;;;;;5104733;28;20053;-45
2021/04/16 04:36:57;;;;;;;6.15;1.25;;;27.10;84.40;;;;;;5086961;28;20020;-48
2021/04/16 04:39:27;;;;;;;4.20;1.15;;;27.10;84.30;;;;;;5104804;28;20027;-47
2021/04/16 04:41:54;;;;;;;9.75;1.30;;;27.10;84.10;;;;;;5104390;28;20032;-45
2021/04/16 04:44:21;;;;;;;5.93;1.35;;;27.00;84.50;;;;;;5104515;28;20024;-46
2021/04/16 04:46:48;;;;;;;6.43;1.35;;;27.00;84.60;;;;;;5069306;28;20088;-44
2021/04/16 04:49:19;;;;;;;6.10;1.60;;;27.00;84.60;;;;;;5104520;28;20305;-47
2021/04/16 04:51:48;;;;;;;4.30;1.20;;;27.00;84.60;;;;;;5104192;28;20020;-51
2021/04/16 04:54:16;;;;;;;10.52;1.52;;;27.00;84.80;;;;;;5103097;28;20055;-41
2021/04/16 04:56:42;;;;;;;6.43;1.33;;;27.00;85.10;;;;;;5104493;28;20028;-43
2021/04/16 04:59:09;;;;;;;5.25;1.20;;;26.90;85.20;;;;;;5104565;28;20308;-44
2021/04/16 05:01:36;;;;;;;6.90;1.40;;;26.90;85.40;;;;;;5085567;28;20086;-49
2021/04/16 05:04:06;;;;;;;8.57;1.60;;;26.90;85.70;;;;;;5084598;28;20021;-44
2021/04/16 05:06:33;;;;;;;4.68;2.03;;;26.90;85.90;;;;;;5086348;28;20024;-45
2021/04/16 05:08:59;;;;;;;4.95;1.55;;;26.90;86.00;;;;;;5084000;28;20096;-53
2021/04/16 05:11:26;;;;;;;5.95;2.10;;;26.90;86.20;;;;;;5083947;28;20020;-44
2021/04/16 05:13:53;;;;;;;8.13;1.73;;;26.90;86.50;;;;;;5083938;28;20029;-45
2021/04/16 05:16:20;;;;;;;6.07;1.40;;;26.80;86.80;;;;;;5095514;28;20028;-45
2021/04/16 05:18:48;;;;;;;4.97;1.55;;;26.80;87.20;;;;;;5102732;28;20069;-44
2021/04/16 05:21:16;;;;;;;8.13;1.73;;;26.80;87.50;;;;;;5103503;28;20063;-52
2021/04/16 05:23:42;;;;;;;9.32;1.60;;;26.80;87.70;;;;;;5103962;28;20020;-44
2021/04/16 05:26:10;;;;;;;5.35;1.65;;;26.80;87.90;;;;;;5104024;28;20046;-47
2021/04/16 05:28:37;;;;;;;8.05;1.70;;;26.80;88.10;;;;;;5104106;28;20242;-44
2021/04/16 05:31:03;;;;;;;11.77;1.85;;;26.70;88.40;;;;;;5103580;28;20012;-44
2021/04/16 05:33:30;;;;;;;7.53;2.30;;;26.70;88.60;;;;;;5103882;28;20024;-43
2021/04/16 05:35:57;;;;;;;6.03;2.00;;;26.60;88.60;;;;;;5103591;28;20231;-42
2021/04/16 05:38:23;;;;;;;8.57;2.00;;;26.70;88.50;;;;;;5103671;28;20020;-47
2021/04/16 05:40:50;;;;;;;10.88;2.33;;;26.60;87.70;;;;;;5103760;28;20028;-54
2021/04/16 05:43:16;;;;;;;5.13;1.88;;;26.70;87.90;;;;;;5103691;28;20028;-46
2021/04/16 05:45:43;;;;;;;6.78;2.38;;;26.70;88.00;;;;;;5103510;28;20020;-45
2021/04/16 05:48:09;;;;;;;9.98;1.90;;;26.60;87.80;;;;;;5103581;28;20024;-49
2021/04/16 05:50:36;;;;;;;7.60;1.98;;;26.60;87.90;;;;;;5103479;28;20216;-52
2021/04/16 05:53:03;;;;;;;8.48;2.25;;;26.60;87.90;;;;;;5103649;28;20069;-47
2021/04/16 05:55:30;;;;;;;7.18;1.98;;;26.60;87.80;;;;;;5085952;28;20020;-43
2021/04/16 05:57:58;;;;;;;6.05;1.83;;;26.60;87.90;;;;;;5103640;28;20020;-44
2021/04/16 06:00:27;;;;;;;7.95;2.50;;;26.50;88.00;;;;;;5103372;28;20023;-45
2021/04/16 06:02:54;;;;;;;5.57;1.67;;;26.50;88.30;;;;;;5103315;28;20024;-43
2021/04/16 06:05:22;;;;;;;9.38;1.70;;;26.50;88.30;;;;;;5106080;28;20020;-50
2021/04/16 06:07:51;;;;;;;7.05;1.80;;;26.40;88.40;;;;;;5107008;28;20205;-45
2021/04/16 06:10:20;;;;;;;3.47;1.48;;;26.50;88.60;;;;;;5107228;28;20379;-45
2021/04/16 06:12:46;;;;;;;7.40;2.03;;;26.50;88.50;;;;;;5107087;28;20411;-50
2021/04/16 06:15:24;;;;;;;9.43;1.45;;;26.50;88.40;;;;;;5106878;28;20028;-46
2021/04/16 06:17:51;;;;;;;4.78;1.45;;;26.50;88.30;;;;;;5107128;28;20217;-48
2021/04/16 06:20:21;;;;;;;5.38;1.50;;;26.50;88.00;;;;;;5106748;28;20055;-48
2021/04/16 06:22:49;;;;;;;5.47;1.50;;;26.50;87.60;;;;;;5106682;28;20028;-52
2021/04/16 06:25:20;;;;;;;11.98;1.80;;;26.50;87.30;;;;;;5107060;28;20016;-55
2021/04/16 06:27:47;;;;;;;6.53;1.50;;;26.50;87.20;;;;;;5106781;28;20016;-44
2021/04/16 06:30:15;;;;;;;3.90;1.42;;;26.40;87.00;;;;;;5106703;28;20257;-52
2021/04/16 06:32:42;;;;;;;8.77;1.52;;;26.40;87.10;;;;;;5106770;28;20208;-44
2021/04/16 06:35:13;;;;;;;6.20;1.27;;;26.40;87.00;;;;;;5106472;28;20024;-50
2021/04/16 06:37:40;;;;;;;3.20;1.27;;;26.40;86.80;;;;;;5106722;28;20024;-47
2021/04/16 06:40:07;;;;;;;7.85;1.52;;;26.40;86.70;;;;;;5106963;28;20058;-56
2021/04/16 06:42:35;;;;;;;6.32;1.30;;;26.40;86.40;;;;;;5106227;28;20020;-49
2021/04/16 06:45:07;;;;;;;7.30;1.38;;;26.40;86.60;;;;;;5106952;28;20209;-52
2021/04/16 06:47:38;;;;;;;;;;;26.40;86.50;;;;;;5106999;28;20057;-46
2021/04/16 06:50:07;;;;;;;5.03;1.13;;;26.30;86.40;;;;;;5106420;28;20242;-51
2021/04/16 06:52:40;;;;;;;9.45;1.40;;;26.30;86.50;;;;;;5106300;28;20031;-49
2021/04/16 06:55:23;;;;;;;7.70;1.75;;;26.30;86.50;;;;;;5106187;28;20035;-47
2021/04/16 06:58:03;;;;;;;8.32;1.52;;;26.30;86.80;;;;;;5106499;28;20051;-47
2021/04/16 07:00:41;;;;;;;5.05;1.70;;;26.30;86.90;;;;;;5106130;28;20204;-47
2021/04/16 07:03:25;;;;;;;4.75;1.40;;;26.30;87.00;;;;;;5106215;28;20089;-44
2021/04/16 07:06:15;;;;;;;6.13;1.08;;;26.30;87.00;;;;;;5105851;28;20142;-44
2021/04/16 07:08:50;;;;;;;5.40;1.60;;;26.30;86.90;;;;;;5106350;28;20024;-45
2021/04/16 07:11:29;;;;;;;8.30;1.20;;;26.20;86.80;;;;;;5106227;28;20038;-45
2021/04/16 07:14:01;;;;;;;6.85;1.20;;;26.20;86.60;;;;;;5106002;28;20199;-52
2021/04/16 07:16:30;;;;;;;6.75;1.50;;;26.20;86.80;;;;;;5104726;28;20008;-52
2021/04/16 07:19:05;;;;;;;6.78;1.50;;;26.20;86.90;;;;;;5106210;28;20235;-45
2021/04/16 07:21:32;;;;;;;5.57;1.40;;;26.20;87.00;;;;;;5105682;28;20040;-48
2021/04/16 07:24:03;;;;;;;11.38;1.73;;;26.20;87.10;;;;;;5106287;28;20043;-51
2021/04/16 07:26:44;;;;;;;7.60;1.55;;;26.10;87.10;;;;;;5105538;28;20098;-45
2021/04/16 07:29:37;;;;;;;6.95;1.40;;;26.20;87.40;;;;;;5105931;28;20016;-48
2021/04/16 07:32:04;;;;;;;10.27;1.40;;;26.10;87.30;;;;;;5105487;28;20028;-45
2021/04/16 07:34:34;;;;;;;6.30;1.60;;;26.20;87.50;;;;;;5106299;28;20023;-45
2021/04/16 07:37:11;;;;;;;10.20;1.50;;;26.20;87.40;;;;;;5106067;28;20020;-46
2021/04/16 07:39:48;;;;;;;7.57;1.33;;;26.10;87.50;;;;;;5105803;28;20047;-43
2021/04/16 07:42:21;;;;;;;5.40;1.23;;;26.10;87.70;;;;;;5105515;28;20224;-45
2021/04/16 07:44:57;;;;;;;4.93;1.35;;;26.10;87.20;;;;;;5105973;28;20315;-51
2021/04/16 07:47:30;;;;;;;4.80;1.10;;;26.10;87.30;;;;;;5105446;28;20024;-45
2021/04/16 07:50:06;;;;;;;6.70;1.65;;;26.10;87.40;;;;;;5105509;28;20026;-48
2021/04/16 07:52:45;;;;;;;8.45;1.20;;;26.00;87.40;;;;;;5105056;28;20070;-51
2021/04/16 07:55:15;;;;;;;6.00;1.42;;;26.00;87.30;;;;;;5104972;28;20194;-44
2021/04/16 07:57:57;;;;;;;5.95;1.60;;;26.00;87.20;;;;;;5105272;28;20263;-48
2021/04/16 08:00:24;;;;;;;7.30;1.75;;;26.10;87.00;;;;;;5104845;28;20028;-43
2021/04/16 08:03:06;;;;;;;6.00;1.30;;;26.00;86.80;;;;;;5104860;28;20046;-44
2021/04/16 08:05:40;;;;;;;5.70;1.20;;;26.00;87.20;;;;;;5105713;28;20028;-45
2021/04/16 08:08:13;;;;;;;8.35;1.65;;;26.10;86.50;;;;;;5104843;28;20204;-48
2021/04/16 08:10:42;;;;;;;8.10;1.48;;;26.00;86.30;;;;;;5105219;28;20105;-50
2021/04/16 08:13:22;;;;;;;5.88;1.67;;;26.00;86.10;;;;;;5104623;28;20028;-49
2021/04/16 08:15:50;;;;;;;2.70;1.38;;;26.10;85.90;;;;;;5105234;28;20055;-48
2021/04/16 08:18:22;;;;;;;9.00;1.50;;;26.10;85.80;;;;;;5104798;28;20024;-51
2021/04/16 08:20:57;;;;;;;4.43;1.20;;;26.10;85.40;;;;;;5104539;28;20075;-49
2021/04/16 08:23:25;;;;;;;6.97;1.25;;;26.10;85.30;;;;;;5104621;28;20047;-47
2021/04/16 08:25:55;;;;;;;5.97;1.10;;;26.10;85.30;;;;;;5104852;28;20066;-52
2021/04/16 08:28:43;;;;;;;6.07;1.13;;;26.10;85.10;;;;;;5104606;28;20248;-48
2021/04/16 08:31:14;;;;;;;3.70;1.23;;;26.10;85.10;;;;;;5104322;28;20027;-42
2021/04/16 08:33:45;;;;;;;14.20;1.55;;;26.00;85.10;;;;;;5104778;28;20016;-43
2021/04/16 08:36:36;;;;;;;5.60;1.30;;;26.10;85.00;;;;;;5104227;28;20016;-45
2021/04/16 08:39:16;;;;;;;5.32;1.40;;;26.10;84.60;;;;;;5093047;28;20281;-53
2021/04/16 08:41:56;;;;;;;7.47;1.50;;;26.10;84.80;;;;;;5104261;28;20052;-49
2021/04/16 08:44:26;;;;;;;3.80;1.30;;;26.00;84.70;;;;;;5105013;28;20016;-49
2021/04/16 08:46:58;;;;;;;3.08;1.15;;;26.10;84.80;;;;;;5103937;28;20085;-47
2021/04/16 08:49:32;;;;;;;7.35;1.20;;;26.10;84.70;;;;;;5104408;28;20257;-44
2021/04/16 08:52:05;;;;;;;3.78;1.50;;;26.10;84.80;;;;;;5104201;28;20022;-48
2021/04/16 08:54:36;;;;;;;5.40;1.45;;;26.10;84.80;;;;;;5103930;28;20035;-43
2021/04/16 08:57:06;;;;;;;7.95;1.23;;;26.00;84.70;;;;;;5104210;28;20324;-47
2021/04/16 09:00:00;;;;;;;5.55;1.50;;;26.00;84.60;;;;;;5104817;28;20083;-55
2021/04/16 09:02:46;;;;;;;2.38;1.20;;;26.00;84.70;;;;;;5104040;28;20020;-46
2021/04/16 09:05:14;;;;;;;5.97;1.40;;;26.10;84.70;;;;;;5103990;28;20035;-43
2021/04/16 09:08:10;;;;;;;4.47;1.38;;;26.10;84.80;;;;;;5104141;28;20300;-50
2021/04/16 09:10:59;;;;;;;6.57;1.52;;;26.00;84.70;;;;;;5086675;28;20142;-45
2021/04/16 09:13:41;;;;;;;7.40;0.90;;;26.00;84.70;;;;;;5104028;28;20060;-53
2021/04/16 09:16:17;;;;;;;3.35;1.33;;;26.00;84.60;;;;;;5104966;28;20020;-55
2021/04/16 09:18:51;;;;;;;5.15;1.55;;;26.00;84.60;;;;;;5104475;28;20026;-55
2021/04/16 09:21:20;;;;;;;4.38;1.25;;;26.00;84.80;;;;;;5103969;28;20210;-47
2021/04/16 09:23:47;;;;;;;7.07;1.23;;;26.00;85.40;;;;;;5104365;28;20028;-47
2021/04/16 09:26:48;;;;;;;8.80;1.40;;;26.00;84.90;;;;;;5103809;28;20130;-50
2021/04/16 09:29:27;;;;;;;7.68;1.30;;;26.00;84.90;;;;;;5104045;28;20376;-48
2021/04/16 09:31:59;;;;;;;7.07;1.40;;;26.00;85.00;;;;;;5103744;28;20046;-46
2021/04/16 09:34:42;;;;;;;3.08;1.10;;;26.00;84.90;;;;;;5104110;28;20028;-43
2021/04/16 09:37:30;;;;;;;6.07;1.50;;;26.00;84.90;;;;;;5103989;28;20020;-49
2021/04/16 09:40:23;;;;;;;4.32;1.17;;;26.00;84.70;;;;;;5106360;28;20023;-45
2021/04/16 09:43:00;;;;;;;8.55;1.30;;;26.00;84.80;;;;;;5108033;28;20035;-45
2021/04/16 09:45:47;;;;;;;4.22;1.13;;;26.00;84.80;;;;;;5107985;28;20020;-47
2021/04/16 09:48:20;;;;;;;7.75;1.20;;;26.00;84.80;;;;;;5107963;28;20052;-45
2021/04/16 09:51:10;;;;;;;3.30;1.38;;;26.00;84.80;;;;;;5107805;28;20012;-46
2021/04/16 09:53:38;;;;;;;5.78;1.58;;;26.00;84.80;;;;;;5107897;28;20110;-44
2021/04/16 09:56:19;;;;;;;9.35;1.30;;;26.00;84.70;;;;;;5107331;28;20012;-46
2021/04/16 09:58:52;;;;;;;7.10;1.50;;;26.00;84.90;;;;;;5108029;28;20243;-52
2021/04/16 10:01:21;;;;;;;7.38;1.30;;;25.90;84.80;;;;;;5107704;28;20030;-44
2021/04/16 10:03:58;;;;;;;4.45;1.08;;;26.00;85.00;;;;;;5108106;28;20031;-44
2021/04/16 10:06:40;;;;;;;5.70;1.10;;;26.00;85.00;;;;;;5107360;28;20016;-50
2021/04/16 10:09:18;;;;;;;6.65;1.38;;;25.90;84.80;;;;;;5107389;28;20078;-47
2021/04/16 10:11:59;;;;;;;5.68;1.50;;;25.90;85.00;;;;;;5107219;28;20077;-47
2021/04/16 10:14:28;;;;;;;6.30;1.02;;;25.90;85.00;;;;;;5107360;28;20032;-48
2021/04/16 10:17:05;;;;;;;6.30;1.45;;;26.00;85.20;;;;;;5107068;28;20083;-50
2021/04/16 10:19:38;;;;;;;3.80;1.58;;;25.90;85.00;;;;;;5107179;28;20051;-44
2021/04/16 10:22:12;;;;;;;7.07;1.80;;;25.90;85.20;;;;;;5107386;28;20028;-44
2021/04/16 12:38:43;;;;;;;6.47;2.30;;;27.70;85.30;;;;;;5104458;28;20033;-41
2021/04/16 12:41:16;;;;;;;5.40;2.38;;;27.70;85.20;;;;;;5087862;28;20028;-39
2021/04/16 12:43:45;;;;;;;7.63;2.60;;;27.80;85.00;;;;;;5104329;28;20327;-50
2021/04/16 12:46:16;;;;;;;5.53;2.30;;;27.90;85.10;;;;;;5104309;28;20020;-47
2021/04/16 12:48:43;;;;;;;10.35;2.45;;;27.90;85.00;;;;;;5104485;28;20027;-46
2021/04/16 12:51:11;;;;;;;6.68;2.13;;;27.90;85.00;;;;;;5086123;28;20023;-44
2021/04/16 12:53:38;;;;;;;5.03;2.05;;;27.90;84.90;;;;;;5104629;28;20050;-47
2021/04/16 12:56:08;;;;;;;5.47;2.10;;;28.00;84.90;;;;;;5104667;28;20208;-44
2021/04/16 12:58:38;;;;;;;5.43;2.05;;;28.00;85.00;;;;;;5104288;28;20028;-47
2021/04/16 13:01:12;;;;;;;5.03;2.08;;;28.10;84.90;;;;;;5104468;28;20027;-49
2021/04/16 13:03:41;;;;;;;4.88;1.75;;;28.10;85.00;;;;;;5104391;28;20024;-44
2021/04/16 13:06:32;;;;;;;5.38;2.25;;;28.10;85.00;;;;;;5104186;28;20024;-50
2021/04/16 13:08:59;;;;;;;5.38;1.75;;;28.20;84.90;;;;;;5104242;28;20073;-48
2021/04/16 13:11:27;;;;;;;7.50;2.00;;;28.10;84.90;;;;;;5104156;28;20372;-44
2021/04/16 13:13:55;;;;;;;7.07;1.80;;;28.20;85.00;;;;;;5104684;28;20024;-43
2021/04/16 13:16:23;;;;;;;4.45;1.48;;;28.30;84.80;;;;;;5108153;28;20396;-49
2021/04/16 13:18:52;;;;;;;7.57;1.75;;;28.30;84.90;;;;;;5108470;28;20095;-45
2021/04/16 13:21:40;;;;;;;10.18;1.70;;;28.40;84.70;;;;;;5107792;28;20340;-52
2021/04/16 13:24:09;;;;;;;3.03;1.23;;;28.40;84.60;;;;;;5108644;28;20088;-45
2021/04/16 13:26:37;;;;;;;3.08;1.40;;;28.40;84.40;;;;;;5108059;28;20035;-47
2021/04/16 13:29:04;;;;;;;3.05;1.60;;;28.40;84.30;;;;;;5108360;28;20035;-54
2021/04/16 13:31:34;;;;;;;5.45;1.65;;;28.40;84.20;;;;;;5108094;28;20301;-46
2021/04/16 13:34:01;;;;;;;2.05;1.23;;;28.50;84.50;;;;;;5108278;28;20032;-45
2021/04/16 13:36:30;;;;;;;6.72;1.55;;;28.50;84.40;;;;;;5107738;28;20312;-46
2021/04/16 13:38:58;;;;;;;2.95;1.50;;;28.50;84.50;;;;;;5108162;28;20028;-44
2021/04/16 13:41:25;;;;;;;3.92;1.60;;;28.50;84.50;;;;;;5107817;28;20022;-43
2021/04/16 13:43:53;;;;;;;5.57;1.42;;;28.50;84.50;;;;;;5107884;28;20070;-48
2021/04/16 13:46:25;;;;;;;3.50;1.48;;;28.50;84.40;;;;;;5108131;28;20020;-51
2021/04/16 13:48:52;;;;;;;;;;;28.50;84.30;;;;;;5108148;28;20339;-45
2021/04/16 13:51:20;;;;;;;4.68;1.60;;;28.60;84.40;;;;;;5107648;28;19908;-49
2021/04/16 13:53:47;;;;;;;2.22;1.25;;;28.60;83.80;;;;;;5107568;28;20077;-44
2021/04/16 13:56:13;;;;;;;4.75;1.30;;;28.70;82.90;;;;;;5107447;28;20014;-50
2021/04/16 13:58:40;;;;;;;4.72;1.33;;;28.70;82.90;;;;;;5090037;28;20059;-43
2021/04/16 14:01:10;;;;;;;3.40;1.30;;;28.70;83.10;;;;;;5107538;28;20016;-46
2021/04/16 14:03:43;;;;;;;4.47;1.40;;;28.70;83.10;;;;;;5107408;28;20035;-49
2021/04/16 14:06:33;;;;;;;2.60;1.20;;;28.80;83.10;;;;;;5107327;28;20038;-42
2021/04/16 14:09:14;;;;;;;3.65;1.65;;;28.70;82.80;;;;;;5107343;28;20039;-50
2021/04/16 14:11:41;;;;;;;2.65;1.27;;;28.80;82.80;;;;;;5107512;28;20020;-46
2021/04/16 14:14:19;;;;;;;2.78;1.52;;;28.80;82.80;;;;;;5107264;28;20077;-46
2021/04/16 14:16:48;;;;;;;2.38;1.20;;;28.80;82.70;;;;;;5107047;28;20283;-54
2021/04/16 14:19:23;;;;;;;2.22;1.33;;;28.90;82.80;;;;;;5103676;28;20292;-53
2021/04/16 14:21:53;;;;;;;2.92;1.02;;;28.90;82.70;;;;;;5086643;28;20372;-54
2021/04/16 14:24:20;;;;;;;4.22;1.40;;;28.90;82.50;;;;;;5092419;28;20066;-44
2021/04/16 14:26:49;;;;;;;3.78;1.10;;;28.90;82.60;;;;;;5086098;28;20236;-53
2021/04/16 14:29:15;;;;;;;1.98;1.30;;;28.90;82.40;;;;;;5095740;28;20035;-46
2021/04/16 14:31:44;;;;;;;2.65;0.95;;;29.00;82.30;;;;;;5096603;28;20019;-41
2021/04/16 14:34:16;;;;;;;1.60;0.95;;;29.00;82.00;;;;;;5106219;28;20023;-45
2021/04/16 14:36:44;;;;;;;2.92;1.30;;;29.00;81.80;;;;;;5107054;28;20038;-45
2021/04/16 14:39:12;;;;;;;2.45;1.17;;;29.10;81.90;;;;;;5106749;28;20028;-48
2021/04/16 14:41:39;;;;;;;3.40;1.02;;;29.10;81.80;;;;;;5106602;28;20038;-47
2021/04/16 14:44:14;;;;;;;2.58;1.10;;;29.00;81.30;;;;;;5106679;28;20024;-46
2021/04/16 14:46:45;;;;;;;1.70;1.00;;;29.10;81.50;;;;;;5106541;28;20016;-45
2021/04/16 14:49:13;;;;;;;3.95;1.10;;;29.10;80.70;;;;;;5106760;28;20032;-43
2021/04/16 14:51:41;;;;;;;7.35;1.05;;;29.20;81.00;;;;;;5106449;28;20328;-45
2021/04/16 14:54:23;;;;;;;3.47;1.20;;;29.20;80.80;;;;;;5106559;28;20039;-48
2021/04/16 14:56:50;;;;;;;1.58;1.05;;;29.30;80.80;;;;;;5102561;28;20031;-43
2021/04/16 14:59:28;;;;;;;2.25;1.10;;;29.20;80.60;;;;;;5089120;28;20033;-44
2021/04/16 15:01:55;;;;;;;3.95;1.30;;;29.30;80.40;;;;;;5086008;28;20070;-43
2021/04/16 15:04:22;;;;;;;2.30;0.90;;;29.30;78.10;;;;;;5089583;28;20027;-44
2021/04/16 15:06:55;;;;;;;2.80;1.25;;;29.30;79.00;;;;;;5106459;28;20345;-44
2021/04/16 15:09:23;;;;;;;2.13;1.20;;;29.30;79.00;;;;;;5106501;28;20043;-48
2021/04/16 15:11:52;;;;;;;3.88;1.30;;;29.40;79.20;;;;;;5106469;28;20020;-46
2021/04/16 15:14:26;;;;;;;4.38;1.13;;;29.40;78.80;;;;;;5106239;28;20027;-52
2021/04/16 15:16:53;;;;;;;3.67;0.90;;;29.40;78.40;;;;;;5106100;28;20027;-50
2021/04/16 15:19:28;;;;;;;3.35;1.10;;;29.40;78.50;;;;;;5106014;28;20304;-47